Time;durP1;ratioP1;P1;durP2;ratioP2;P2;SDS_P1;SDS_P2;PMS_P1;PMS_P2;Temp;Humidity;BMP_temperature;BMP_pressure;BME280_temperature;BME280_humidity;BME280_pressure;Samples;Min_cycle;Max_cycle;Signal;HPM_P1;HPM_P2
2023/04/07 00:01:45;;;;;;;70.38;49.65;;;15.20;68.90;;;;;;4979185;28;86546;-61
2023/04/07 00:04:10;;;;;;;69.97;50.15;;;15.20;68.90;;;;;;4983263;28;85174;-61
2023/04/07 00:06:36;;;;;;;70.85;50.10;;;15.20;68.80;;;;;;4987000;28;85052;-58
2023/04/07 00:09:02;;;;;;;70.00;49.95;;;15.20;68.70;;;;;;4981573;28;84853;-61
2023/04/07 00:11:28;;;;;;;70.20;49.95;;;15.20;68.70;;;;;;4983366;28;85360;-61
2023/04/07 00:13:54;;;;;;;70.47;49.83;;;15.20;68.60;;;;;;4983462;28;86040;-61
2023/04/07 00:16:19;;;;;;;70.80;50.05;;;15.20;68.70;;;;;;4979804;28;84825;-61
2023/04/07 00:18:45;;;;;;;69.68;49.75;;;15.20;68.90;;;;;;4986245;28;85181;-50
2023/04/07 00:21:11;;;;;;;69.78;49.78;;;15.20;68.80;;;;;;4980401;28;85098;-60
2023/04/07 00:23:37;;;;;;;69.75;49.72;;;15.20;68.90;;;;;;4983736;28;84843;-60
2023/04/07 00:26:02;;;;;;;69.72;49.88;;;15.10;68.80;;;;;;4968540;28;85261;-61
2023/04/07 00:28:28;;;;;;;71.28;49.85;;;15.10;68.80;;;;;;4978418;28;84612;-60
2023/04/07 00:30:54;;;;;;;69.72;49.90;;;15.10;68.70;;;;;;4981786;28;84777;-59
2023/04/07 00:33:19;;;;;;;69.53;49.90;;;15.10;68.90;;;;;;4981826;28;84941;-60
2023/04/07 00:35:45;;;;;;;71.35;49.97;;;15.10;68.80;;;;;;4964719;28;85294;-60
2023/04/07 00:38:10;;;;;;;70.25;49.70;;;15.10;68.80;;;;;;4984386;28;85613;-61
2023/04/07 00:40:36;;;;;;;69.85;49.88;;;15.10;68.80;;;;;;4982480;28;84709;-61
2023/04/07 00:43:02;;;;;;;70.45;50.47;;;15.10;68.80;;;;;;4982098;28;84652;-61
2023/04/07 00:45:27;;;;;;;70.15;50.10;;;15.10;68.80;;;;;;4986192;28;84940;-61
2023/04/07 00:47:55;;;;;;;69.45;50.15;;;15.10;68.80;;;;;;4984059;28;85377;-60
2023/04/07 00:50:20;;;;;;;70.65;49.92;;;15.10;68.80;;;;;;4974732;28;85029;-61
2023/04/07 00:52:46;;;;;;;70.20;49.42;;;15.10;68.80;;;;;;4969087;28;86135;-60
2023/04/07 00:55:12;;;;;;;71.15;49.80;;;15.10;68.70;;;;;;4975954;28;84294;-58
2023/04/07 00:57:38;;;;;;;70.20;49.88;;;15.00;68.60;;;;;;4963262;28;86023;-61
2023/04/07 01:00:05;;;;;;;69.82;49.95;;;15.00;68.70;;;;;;4983029;28;84920;-53
2023/04/07 01:03:09;;;;;;;69.57;49.67;;;15.00;68.70;;;;;;4961397;28;85490;-60
2023/04/07 01:05:53;;;;;;;70.05;49.92;;;15.00;68.70;;;;;;4976893;28;84506;-60
2023/04/07 01:08:50;;;;;;;70.30;49.83;;;15.00;68.60;;;;;;4981807;28;85130;-59
2023/04/07 01:11:22;;;;;;;69.63;50.00;;;15.00;68.50;;;;;;4982969;28;84886;-59
2023/04/07 01:13:51;;;;;;;;;;;15.00;68.40;;;;;;4979920;28;84978;-61
2023/04/07 01:16:24;;;;;;;69.65;49.75;;;15.10;68.40;;;;;;4967929;28;83604;-51
2023/04/07 01:18:53;;;;;;;70.78;50.00;;;15.00;68.50;;;;;;4979683;28;84646;-61
2023/04/07 01:21:21;;;;;;;69.85;50.25;;;15.00;68.40;;;;;;4987849;28;85042;-59
2023/04/07 01:24:11;;;;;;;69.28;49.78;;;15.00;69.10;;;;;;4986707;28;84706;-61
2023/04/07 01:26:39;;;;;;;70.47;49.63;;;15.00;68.50;;;;;;4984152;28;84666;-58
2023/04/07 01:29:30;;;;;;;71.18;50.35;;;15.00;68.40;;;;;;4978649;28;85603;-41
2023/04/07 01:31:58;;;;;;;70.73;50.13;;;15.00;68.40;;;;;;4987605;28;84952;-42
2023/04/07 01:34:27;;;;;;;69.53;50.08;;;15.00;68.30;;;;;;4985689;28;85228;-42
2023/04/07 01:36:55;;;;;;;69.95;50.15;;;15.00;68.40;;;;;;4986979;28;86329;-41
2023/04/07 01:39:22;;;;;;;69.88;49.63;;;14.90;68.40;;;;;;4987985;28;84983;-43
2023/04/07 01:41:51;;;;;;;69.85;49.70;;;15.00;68.50;;;;;;4985950;28;85804;-42
2023/04/07 01:44:19;;;;;;;69.70;50.10;;;15.00;68.30;;;;;;4983256;28;85093;-41
2023/04/07 01:46:45;;;;;;;68.93;49.70;;;15.00;68.40;;;;;;4984175;28;85693;-43
2023/04/07 01:49:12;;;;;;;69.90;49.67;;;14.90;68.30;;;;;;4988785;28;85925;-42
2023/04/07 01:51:39;;;;;;;69.57;50.35;;;14.90;68.40;;;;;;4985923;28;90109;-44
2023/04/07 01:54:06;;;;;;;69.10;49.97;;;14.90;68.50;;;;;;4975764;28;85526;-45
2023/04/07 01:56:32;;;;;;;69.28;49.70;;;14.90;68.70;;;;;;4980926;28;85908;-45
2023/04/07 01:58:58;;;;;;;71.47;50.08;;;14.80;68.60;;;;;;4979424;28;85095;-46
2023/04/07 02:01:24;;;;;;;70.45;50.05;;;14.80;68.60;;;;;;4982713;28;85667;-45
2023/04/07 02:04:03;;;;;;;69.63;49.97;;;14.90;68.60;;;;;;4963834;28;85380;-46
2023/04/07 02:06:33;;;;;;;75.85;50.55;;;14.80;68.50;;;;;;4983455;28;85469;-48
2023/04/07 02:09:05;;;;;;;70.57;50.42;;;14.90;68.50;;;;;;4982345;28;85133;-43
2023/04/07 02:11:33;;;;;;;69.57;50.17;;;14.90;68.40;;;;;;4985463;28;84845;-43
2023/04/07 02:14:01;;;;;;;68.75;49.85;;;14.80;68.50;;;;;;4982036;28;85446;-47
2023/04/07 02:16:31;;;;;;;69.82;49.92;;;14.80;68.60;;;;;;4983067;28;85019;-42
2023/04/07 02:18:58;;;;;;;70.13;50.35;;;14.80;68.70;;;;;;4983162;28;85766;-41
2023/04/07 02:21:26;;;;;;;70.07;50.58;;;14.80;68.80;;;;;;4983728;28;90184;-42
2023/04/07 02:23:51;;;;;;;68.55;49.63;;;14.80;68.50;;;;;;4982353;28;84790;-42
2023/04/07 02:26:17;;;;;;;69.38;49.65;;;14.80;68.80;;;;;;4982535;28;85689;-42
2023/04/07 02:28:43;;;;;;;70.28;49.92;;;14.80;68.80;;;;;;4979031;28;85666;-42
2023/04/07 02:31:08;;;;;;;69.55;50.38;;;14.80;68.50;;;;;;4985650;28;85154;-41
2023/04/07 02:33:34;;;;;;;69.10;50.03;;;14.80;68.50;;;;;;4977839;28;85781;-42
2023/04/07 02:35:59;;;;;;;69.82;49.58;;;14.80;68.70;;;;;;4968509;28;85556;-42
2023/04/07 02:38:26;;;;;;;72.32;50.38;;;14.80;68.50;;;;;;4980795;28;87115;-39
2023/04/07 02:40:51;;;;;;;69.00;50.00;;;14.80;68.70;;;;;;4984434;28;85508;-44
2023/04/07 02:43:19;;;;;;;70.22;49.80;;;14.80;68.70;;;;;;4983261;28;85330;-42
2023/04/07 02:45:45;;;;;;;68.45;49.95;;;14.80;68.70;;;;;;4982583;28;85138;-42
2023/04/07 02:48:11;;;;;;;69.72;49.97;;;14.70;68.70;;;;;;4982454;28;88985;-41
2023/04/07 02:50:36;;;;;;;70.90;50.28;;;14.70;68.70;;;;;;4981979;28;85717;-43
2023/04/07 02:53:02;;;;;;;68.75;49.80;;;14.70;68.90;;;;;;4977635;28;85642;-44
2023/04/07 02:55:28;;;;;;;69.13;49.70;;;14.80;68.70;;;;;;4983947;28;84960;-42
2023/04/07 02:57:53;;;;;;;69.07;49.95;;;14.80;68.80;;;;;;4983775;28;85667;-42
2023/04/07 03:00:19;;;;;;;68.75;50.08;;;14.80;68.70;;;;;;4982934;28;88202;-43
2023/04/07 03:02:45;;;;;;;69.05;49.65;;;14.70;68.60;;;;;;4981755;28;86407;-41
2023/04/07 03:05:11;;;;;;;69.70;49.95;;;14.70;68.60;;;;;;4982281;28;84845;-43
2023/04/07 03:07:36;;;;;;;70.05;50.30;;;14.70;68.70;;;;;;4979959;28;85894;-43
2023/04/07 03:10:02;;;;;;;70.35;50.75;;;14.70;68.60;;;;;;4982944;28;85950;-43
2023/04/07 03:12:28;;;;;;;71.35;50.33;;;14.70;68.70;;;;;;4982997;28;86512;-44
2023/04/07 03:14:53;;;;;;;69.82;50.45;;;14.70;68.70;;;;;;4983001;28;85043;-44
2023/04/07 03:17:19;;;;;;;69.68;50.60;;;14.70;68.60;;;;;;4978853;28;84963;-43
2023/04/07 03:19:45;;;;;;;69.32;50.05;;;14.70;68.70;;;;;;4977975;28;85338;-43
2023/04/07 03:22:11;;;;;;;68.75;49.90;;;14.60;68.70;;;;;;4983888;28;85831;-44
2023/04/07 03:24:38;;;;;;;69.97;50.05;;;14.60;68.70;;;;;;4976660;28;85028;-42
2023/04/07 03:27:04;;;;;;;68.60;49.78;;;14.60;68.70;;;;;;4982841;28;84945;-43
2023/04/07 03:29:29;;;;;;;69.25;50.10;;;14.60;68.70;;;;;;4985271;28;84838;-41
2023/04/07 03:31:55;;;;;;;68.50;50.05;;;14.60;68.70;;;;;;4965012;28;85777;-41
2023/04/07 03:34:21;;;;;;;69.13;49.92;;;14.70;68.80;;;;;;4984840;28;85008;-44
2023/04/07 03:36:47;;;;;;;70.88;49.95;;;14.60;68.70;;;;;;4982239;28;85537;-44
2023/04/07 03:39:12;;;;;;;68.70;49.90;;;14.60;68.70;;;;;;4981335;28;86781;-42
2023/04/07 03:41:38;;;;;;;68.68;49.92;;;14.60;68.70;;;;;;4982570;28;84631;-42
2023/04/07 03:44:04;;;;;;;69.03;49.90;;;14.60;68.90;;;;;;4976761;28;84785;-42
2023/04/07 03:46:30;;;;;;;68.15;49.63;;;14.60;68.70;;;;;;4965372;28;89218;-42
2023/04/07 03:48:55;;;;;;;69.28;49.88;;;14.60;68.90;;;;;;4986360;28;85401;-43
2023/04/07 03:51:21;;;;;;;67.70;49.72;;;14.60;69.00;;;;;;4984105;28;85108;-44
2023/04/07 03:53:47;;;;;;;68.70;49.90;;;14.60;69.00;;;;;;4983114;28;85390;-42
2023/04/07 03:56:12;;;;;;;68.95;49.65;;;14.50;69.10;;;;;;4983778;28;85504;-44
2023/04/07 03:58:41;;;;;;;68.28;49.85;;;14.50;69.10;;;;;;4983933;28;87127;-41
2023/04/07 04:01:07;;;;;;;69.10;50.13;;;14.50;69.00;;;;;;4984229;28;85608;-42
2023/04/07 04:03:33;;;;;;;69.88;50.05;;;14.50;69.00;;;;;;4982086;28;85782;-42
2023/04/07 04:05:59;;;;;;;69.53;49.78;;;14.60;68.90;;;;;;4982897;28;85224;-44
2023/04/07 04:08:24;;;;;;;69.47;50.05;;;14.50;68.80;;;;;;4983026;28;85399;-43
2023/04/07 04:10:51;;;;;;;68.28;49.80;;;14.50;68.90;;;;;;4981000;28;85363;-41
2023/04/07 04:13:16;;;;;;;68.45;49.75;;;14.50;69.10;;;;;;4982911;28;86698;-44
2023/04/07 04:15:42;;;;;;;68.75;50.08;;;14.50;68.90;;;;;;4983179;28;84959;-42
2023/04/07 04:18:08;;;;;;;68.18;49.53;;;14.50;69.00;;;;;;4965584;28;86499;-44
2023/04/07 04:20:33;;;;;;;69.10;50.00;;;14.50;69.00;;;;;;4980796;28;86264;-42
2023/04/07 04:22:59;;;;;;;68.50;49.63;;;14.50;69.00;;;;;;4981521;28;87164;-47
2023/04/07 04:25:25;;;;;;;70.00;49.97;;;14.50;68.90;;;;;;4983592;28;84606;-45
2023/04/07 04:27:51;;;;;;;70.13;50.05;;;14.50;69.00;;;;;;4980359;28;84986;-47
2023/04/07 04:30:16;;;;;;;69.10;50.08;;;14.50;68.90;;;;;;4983464;28;84848;-48
2023/04/07 04:32:42;;;;;;;68.68;49.67;;;14.40;68.90;;;;;;4980530;28;84617;-43
2023/04/07 04:35:08;;;;;;;70.38;50.17;;;14.40;68.90;;;;;;4968857;28;85359;-45
2023/04/07 04:37:34;;;;;;;69.00;49.83;;;14.40;69.00;;;;;;4971611;28;85849;-45
2023/04/07 04:40:00;;;;;;;68.97;49.97;;;14.40;68.90;;;;;;4977440;28;85337;-45
2023/04/07 04:42:26;;;;;;;68.18;49.55;;;14.40;68.90;;;;;;4976466;28;85043;-44
2023/04/07 04:44:52;;;;;;;68.45;49.92;;;14.40;68.90;;;;;;4980592;28;85039;-42
2023/04/07 04:47:18;;;;;;;69.75;50.08;;;14.40;68.90;;;;;;4982405;28;85321;-42
2023/04/07 04:49:44;;;;;;;69.60;50.15;;;14.40;68.90;;;;;;4979074;28;84946;-43
2023/04/07 04:52:10;;;;;;;69.72;50.03;;;14.30;69.00;;;;;;4983513;28;85350;-44
2023/04/07 04:54:35;;;;;;;69.38;50.22;;;14.30;68.90;;;;;;4977811;28;84800;-44
2023/04/07 04:57:02;;;;;;;70.20;50.10;;;14.40;69.10;;;;;;4975637;28;89325;-43
2023/04/07 04:59:27;;;;;;;68.28;50.08;;;14.30;69.00;;;;;;4982705;28;85577;-41
2023/04/07 05:01:53;;;;;;;69.22;50.17;;;14.30;69.00;;;;;;4980478;28;87237;-43
2023/04/07 05:04:19;;;;;;;69.18;50.40;;;14.30;69.10;;;;;;4980911;28;85207;-43
2023/04/07 05:06:45;;;;;;;68.47;49.78;;;14.30;69.20;;;;;;4979057;28;85438;-40
2023/04/07 05:09:10;;;;;;;68.63;49.90;;;14.30;69.20;;;;;;4981098;28;85654;-42
2023/04/07 05:11:36;;;;;;;69.45;49.55;;;14.30;69.00;;;;;;4979401;28;85207;-42
2023/04/07 05:14:02;;;;;;;68.53;49.70;;;14.30;69.80;;;;;;4986669;28;85526;-43
2023/04/07 05:16:27;;;;;;;67.72;49.55;;;14.30;69.10;;;;;;4982010;28;85143;-45
2023/04/07 05:18:53;;;;;;;68.05;49.90;;;14.30;69.00;;;;;;4981296;28;85152;-44
2023/04/07 05:21:20;;;;;;;67.97;49.67;;;14.40;69.00;;;;;;4975830;28;85184;-45
2023/04/07 05:23:46;;;;;;;68.63;49.60;;;14.30;69.20;;;;;;4964985;28;85597;-42
2023/04/07 05:26:12;;;;;;;68.70;50.17;;;14.30;69.30;;;;;;4969799;28;85157;-44
2023/04/07 05:28:37;;;;;;;71.07;51.10;;;14.30;69.20;;;;;;4973904;28;86265;-59
2023/04/07 05:31:03;;;;;;;70.18;51.13;;;14.30;69.30;;;;;;4980904;28;84452;-53
2023/04/07 05:33:29;;;;;;;69.18;50.78;;;14.20;69.30;;;;;;4980902;28;84892;-58
2023/04/07 05:35:55;;;;;;;72.22;50.92;;;14.30;69.30;;;;;;4977405;28;84973;-54
2023/04/07 05:38:20;;;;;;;72.20;50.85;;;14.30;69.30;;;;;;4971810;28;89317;-59
2023/04/07 05:40:46;;;;;;;70.43;50.38;;;14.20;69.50;;;;;;4973739;28;84870;-57
2023/04/07 05:43:11;;;;;;;70.78;50.83;;;14.30;69.20;;;;;;4976739;28;84728;-58
2023/04/07 05:45:37;;;;;;;70.43;50.83;;;14.20;69.20;;;;;;4984024;28;84714;-59
2023/04/07 05:48:03;;;;;;;71.93;50.50;;;14.20;69.30;;;;;;4983246;28;84614;-57
2023/04/07 05:50:28;;;;;;;70.78;50.45;;;14.20;69.50;;;;;;4980402;28;87666;-59
2023/04/07 05:52:54;;;;;;;69.93;50.35;;;14.20;69.40;;;;;;4977888;28;84010;-51
2023/04/07 05:55:20;;;;;;;69.95;50.47;;;14.20;69.50;;;;;;4981014;28;85030;-57
2023/04/07 05:57:46;;;;;;;70.65;50.25;;;14.20;69.50;;;;;;4981371;28;85095;-57
2023/04/07 06:00:13;;;;;;;70.63;50.63;;;14.30;69.50;;;;;;4974414;28;84722;-58
2023/04/07 06:02:39;;;;;;;69.82;50.67;;;14.30;69.50;;;;;;4974879;28;84958;-58
2023/04/07 06:05:05;;;;;;;72.03;51.03;;;14.30;69.50;;;;;;4978964;28;84303;-59
2023/04/07 06:07:31;;;;;;;71.70;50.35;;;14.30;69.20;;;;;;4965008;28;84730;-59
2023/04/07 06:09:57;;;;;;;70.35;51.05;;;14.40;69.30;;;;;;4980331;28;84750;-59
2023/04/07 06:12:22;;;;;;;74.15;50.85;;;14.40;69.50;;;;;;4985350;28;85795;-59
2023/04/07 06:14:54;;;;;;;72.20;51.10;;;14.50;69.60;;;;;;4986192;28;84660;-59
2023/04/07 06:17:20;;;;;;;71.43;50.47;;;14.40;69.60;;;;;;4980826;28;85285;-58
2023/04/07 06:19:46;;;;;;;71.22;50.55;;;14.50;69.70;;;;;;4984654;28;85359;-59
2023/04/07 06:22:12;;;;;;;75.95;50.67;;;14.60;69.30;;;;;;4983105;28;86386;-56
2023/04/07 06:24:38;;;;;;;75.80;50.95;;;14.60;69.80;;;;;;4977740;28;85077;-58
2023/04/07 06:27:03;;;;;;;76.57;51.53;;;14.70;69.70;;;;;;4984177;28;84690;-56
2023/04/07 06:29:32;;;;;;;76.70;50.78;;;14.80;70.00;;;;;;4983800;28;85871;-57
2023/04/07 06:31:57;;;;;;;77.30;51.45;;;14.90;70.70;;;;;;4980804;28;85759;-57
2023/04/07 06:34:23;;;;;;;81.18;51.35;;;14.90;72.00;;;;;;4982080;28;84490;-57
2023/04/07 06:36:49;;;;;;;82.50;51.13;;;14.90;72.70;;;;;;4964041;28;85037;-56
2023/04/07 06:39:14;;;;;;;75.90;51.03;;;14.90;72.80;;;;;;4978391;28;85250;-58
2023/04/07 06:41:42;;;;;;;75.60;51.42;;;15.00;72.50;;;;;;4979934;28;85333;-58
2023/04/07 06:44:09;;;;;;;71.90;50.88;;;15.00;72.00;;;;;;4983354;28;85904;-57
2023/04/07 06:46:35;;;;;;;74.50;51.30;;;15.00;71.60;;;;;;4982338;28;85202;-57
2023/04/07 06:49:02;;;;;;;78.55;51.47;;;15.10;71.00;;;;;;4977069;28;85526;-55
2023/04/07 06:51:28;;;;;;;76.07;51.35;;;15.10;70.50;;;;;;4979056;28;84452;-59
2023/04/07 06:53:54;;;;;;;73.50;51.65;;;15.00;70.20;;;;;;4982045;28;84576;-57
2023/04/07 06:56:20;;;;;;;76.55;51.72;;;15.00;70.20;;;;;;4984081;28;85709;-57
2023/04/07 06:58:45;;;;;;;77.97;52.20;;;15.00;70.20;;;;;;4984416;28;85090;-58
2023/04/07 07:01:11;;;;;;;76.78;51.97;;;15.00;70.00;;;;;;4972322;28;86609;-58
2023/04/07 07:03:37;;;;;;;77.45;52.17;;;15.00;69.70;;;;;;4975101;28;85338;-59
2023/04/07 07:06:02;;;;;;;78.30;52.00;;;15.00;69.90;;;;;;4979827;28;85812;-59
2023/04/07 07:08:29;;;;;;;83.68;52.42;;;15.00;70.00;;;;;;4974818;28;85124;-57
2023/04/07 07:10:56;;;;;;;80.78;52.10;;;15.10;70.20;;;;;;4971227;28;86356;-57
2023/04/07 07:13:24;;;;;;;82.18;52.40;;;15.30;69.90;;;;;;4984809;28;84432;-59
2023/04/07 07:15:50;;;;;;;79.20;52.70;;;15.40;69.50;;;;;;4986390;28;85478;-57
2023/04/07 07:18:16;;;;;;;77.93;52.95;;;15.50;69.60;;;;;;4984688;28;85621;-65
2023/04/07 07:20:42;;;;;;;74.85;51.83;;;15.40;69.60;;;;;;4982555;28;84974;-67
2023/04/07 07:23:07;;;;;;;77.75;52.35;;;15.40;70.00;;;;;;4983636;28;84931;-64
2023/04/07 07:25:33;;;;;;;80.00;52.92;;;15.50;71.50;;;;;;4977057;28;85252;-53
2023/04/07 07:27:59;;;;;;;83.53;53.03;;;15.50;71.00;;;;;;4975607;28;84870;-55
2023/04/07 07:30:25;;;;;;;81.18;52.75;;;15.30;71.10;;;;;;4980301;28;85347;-57
2023/04/07 07:32:52;;;;;;;76.05;52.25;;;15.20;71.10;;;;;;4979498;28;84872;-58
2023/04/07 07:35:19;;;;;;;76.50;52.83;;;15.20;71.40;;;;;;4984326;28;87067;-57
2023/04/07 07:37:44;;;;;;;77.03;52.45;;;15.30;70.40;;;;;;4973338;28;85842;-56
2023/04/07 07:40:10;;;;;;;79.15;52.92;;;15.40;69.50;;;;;;4970294;28;85392;-57
2023/04/07 07:42:36;;;;;;;80.18;52.75;;;15.50;68.90;;;;;;4980998;28;85063;-57
2023/04/07 07:45:02;;;;;;;79.97;52.80;;;15.60;68.30;;;;;;4981772;28;86158;-58
2023/04/07 07:47:28;;;;;;;77.53;52.88;;;15.50;68.80;;;;;;4975594;28;86549;-58
2023/04/07 07:49:54;;;;;;;84.18;52.88;;;15.60;68.50;;;;;;4964105;28;89983;-58
2023/04/07 07:52:20;;;;;;;79.13;52.85;;;15.60;68.50;;;;;;4974202;28;85943;-58
2023/04/07 07:54:47;;;;;;;75.97;52.00;;;15.60;67.90;;;;;;4972658;28;85537;-53
2023/04/07 07:57:12;;;;;;;75.78;52.25;;;15.70;67.40;;;;;;4976166;28;84708;-58
2023/04/07 07:59:40;;;;;;;79.82;52.30;;;15.50;67.90;;;;;;4978116;28;85578;-57
2023/04/07 08:02:06;;;;;;;77.68;52.30;;;15.60;67.80;;;;;;4982727;28;85098;-55
2023/04/07 08:04:31;;;;;;;77.45;52.58;;;15.70;67.40;;;;;;4961060;28;85269;-52
2023/04/07 08:06:57;;;;;;;78.38;52.17;;;15.50;67.40;;;;;;4982919;28;86525;-57
2023/04/07 08:09:23;;;;;;;78.75;52.75;;;15.50;67.50;;;;;;4980600;28;86047;-53
2023/04/07 08:11:50;;;;;;;76.95;51.78;;;15.60;67.40;;;;;;4982672;28;86270;-58
2023/04/07 08:14:16;;;;;;;75.80;52.58;;;15.60;67.60;;;;;;4980042;28;86154;-53
2023/04/07 08:16:42;;;;;;;76.78;52.22;;;15.60;67.30;;;;;;4979454;28;85152;-57
2023/04/07 08:19:08;;;;;;;77.55;52.22;;;15.60;67.50;;;;;;4967834;28;85661;-58
2023/04/07 08:21:34;;;;;;;77.10;52.22;;;15.80;66.90;;;;;;4975783;28;84771;-57
2023/04/07 08:24:00;;;;;;;75.38;52.38;;;15.80;66.70;;;;;;4968967;28;87290;-56
2023/04/07 08:26:26;;;;;;;74.95;52.47;;;15.70;66.90;;;;;;4980437;28;85152;-54
2023/04/07 08:28:52;;;;;;;75.35;52.28;;;15.70;66.70;;;;;;4986047;28;85010;-58
2023/04/07 08:31:18;;;;;;;78.10;52.38;;;15.80;66.50;;;;;;4982790;28;85129;-58
2023/04/07 08:33:44;;;;;;;76.38;51.67;;;15.80;66.20;;;;;;4982523;28;84934;-58
2023/04/07 08:36:10;;;;;;;75.38;52.03;;;15.90;65.80;;;;;;4982553;28;85053;-57
2023/04/07 08:38:35;;;;;;;78.35;52.22;;;15.80;65.40;;;;;;4982897;28;84844;-54
2023/04/07 08:41:10;;;;;;;77.72;52.25;;;15.80;65.40;;;;;;4984859;28;84722;-58
2023/04/07 08:43:38;;;;;;;75.45;52.30;;;15.80;65.10;;;;;;4964558;28;86632;-58
2023/04/07 08:46:04;;;;;;;75.05;52.22;;;15.80;65.20;;;;;;4979839;28;84801;-58
2023/04/07 08:48:34;;;;;;;74.22;52.03;;;15.80;65.20;;;;;;4982297;28;86533;-56
2023/04/07 08:51:11;;;;;;;76.45;52.28;;;15.80;65.00;;;;;;4981106;28;85766;-59
2023/04/07 08:53:42;;;;;;;76.18;52.30;;;15.90;64.80;;;;;;4983712;28;84381;-59
2023/04/07 08:56:10;;;;;;;75.63;52.10;;;15.80;64.80;;;;;;4981601;28;84781;-58
2023/04/07 08:58:37;;;;;;;77.85;52.63;;;15.80;64.80;;;;;;4983488;28;84619;-58
2023/04/07 09:01:05;;;;;;;76.75;52.45;;;15.80;65.00;;;;;;4982378;28;85962;-55
2023/04/07 09:03:33;;;;;;;73.82;52.22;;;15.80;65.30;;;;;;4983230;28;84394;-58
2023/04/07 09:06:02;;;;;;;77.03;52.28;;;15.80;65.60;;;;;;4984941;28;84391;-58
2023/04/07 09:08:28;;;;;;;80.43;52.22;;;15.80;65.90;;;;;;4975968;28;85678;-57
2023/04/07 09:10:55;;;;;;;77.18;52.05;;;15.80;65.30;;;;;;4986027;28;85136;-54
2023/04/07 09:13:22;;;;;;;75.55;52.03;;;15.80;65.40;;;;;;4983655;28;84813;-58
2023/04/07 09:15:48;;;;;;;76.03;52.15;;;15.70;65.70;;;;;;4982895;28;84290;-59
2023/04/07 09:18:15;;;;;;;75.88;52.40;;;15.80;65.60;;;;;;4947206;28;85125;-56
2023/04/07 09:20:58;;;;;;;74.72;52.40;;;15.80;66.00;;;;;;4981393;28;84831;-58
2023/04/07 09:23:32;;;;;;;72.43;51.50;;;15.80;65.80;;;;;;4979950;28;85425;-57
2023/04/07 09:26:00;;;;;;;73.15;51.63;;;15.80;65.40;;;;;;4984924;28;84756;-58
2023/04/07 09:28:40;;;;;;;73.70;52.13;;;15.80;65.40;;;;;;4982448;28;84880;-57
2023/04/07 09:31:05;;;;;;;73.72;51.53;;;15.80;65.20;;;;;;4975394;28;84942;-58
2023/04/07 09:33:33;;;;;;;77.00;51.90;;;15.80;65.00;;;;;;4980950;28;84822;-59
2023/04/07 09:35:58;;;;;;;75.25;51.95;;;15.80;64.90;;;;;;4982419;28;85385;-59
2023/04/07 09:38:38;;;;;;;74.95;52.00;;;15.80;64.80;;;;;;4980281;28;85341;-56
2023/04/07 09:41:09;;;;;;;75.35;51.80;;;15.80;64.70;;;;;;4970333;28;85366;-54
2023/04/07 09:43:40;;;;;;;73.57;51.50;;;15.80;64.80;;;;;;4979402;28;85947;-58
2023/04/07 09:46:16;;;;;;;74.40;51.83;;;15.80;65.00;;;;;;4978404;28;85782;-57
2023/04/07 09:48:44;;;;;;;72.75;51.75;;;15.80;64.90;;;;;;4981809;28;85061;-58
2023/04/07 09:51:16;;;;;;;76.80;51.10;;;15.80;65.10;;;;;;4981372;28;85279;-58
2023/04/07 09:53:48;;;;;;;73.82;51.65;;;15.80;64.80;;;;;;4982486;28;84858;-58
2023/04/07 09:56:21;;;;;;;74.88;52.05;;;15.80;64.70;;;;;;4979802;28;85387;-54
2023/04/07 09:58:47;;;;;;;74.55;51.90;;;15.80;64.60;;;;;;4978891;28;84596;-59
2023/04/07 10:01:16;;;;;;;74.03;52.40;;;15.80;65.10;;;;;;4979365;28;85453;-60
2023/04/07 10:03:42;;;;;;;74.53;52.28;;;15.80;65.40;;;;;;4982332;28;85056;-59
2023/04/07 10:06:08;;;;;;;75.97;52.92;;;15.80;65.30;;;;;;4980764;28;84651;-57
2023/04/07 10:08:36;;;;;;;75.18;52.00;;;15.90;65.00;;;;;;4975771;28;85669;-54
2023/04/07 10:11:03;;;;;;;78.50;52.80;;;15.90;64.90;;;;;;4962321;28;86808;-60
2023/04/07 10:13:31;;;;;;;76.47;53.50;;;15.90;65.30;;;;;;4987099;28;84765;-59
2023/04/07 10:16:02;;;;;;;73.13;52.55;;;15.80;65.60;;;;;;4982419;28;85079;-60
2023/04/07 10:18:30;;;;;;;77.22;53.13;;;15.80;65.10;;;;;;4982164;28;84717;-57
2023/04/07 10:20:59;;;;;;;77.70;52.83;;;15.90;64.90;;;;;;4979067;28;85193;-59
2023/04/07 10:23:28;;;;;;;78.40;53.40;;;15.90;65.70;;;;;;4966476;28;84973;-60
2023/04/07 10:26:01;;;;;;;75.57;52.58;;;16.00;65.20;;;;;;4974726;28;85824;-52
2023/04/07 10:28:29;;;;;;;79.28;53.08;;;16.00;65.80;;;;;;4984001;28;85401;-56
2023/04/07 10:30:59;;;;;;;77.10;53.17;;;16.00;66.30;;;;;;4987709;28;87439;-52
2023/04/07 10:33:48;;;;;;;78.22;52.72;;;16.00;66.60;;;;;;4981057;28;84651;-59
2023/04/07 10:36:16;;;;;;;75.82;52.35;;;15.90;67.10;;;;;;4957319;28;84636;-58
2023/04/07 10:38:45;;;;;;;96.80;52.85;;;15.90;67.00;;;;;;4979150;28;85061;-53
2023/04/07 10:41:33;;;;;;;76.57;52.53;;;15.90;67.10;;;;;;4974613;28;84646;-56
2023/04/07 10:44:01;;;;;;;73.38;52.20;;;15.80;67.50;;;;;;4979657;28;85125;-59
2023/04/07 10:46:48;;;;;;;77.72;52.17;;;15.70;67.80;;;;;;4980993;28;88726;-59
2023/04/07 10:49:18;;;;;;;75.65;52.35;;;15.70;68.40;;;;;;4978416;28;85164;-60
2023/04/07 10:51:43;;;;;;;76.45;52.13;;;15.70;68.10;;;;;;4981869;28;84743;-59
2023/04/07 10:54:21;;;;;;;76.18;52.13;;;15.80;68.10;;;;;;4966046;28;86162;-57
2023/04/07 10:57:02;;;;;;;75.53;51.78;;;15.80;67.70;;;;;;4982818;28;84177;-58
2023/04/07 10:59:29;;;;;;;73.47;51.25;;;15.80;67.90;;;;;;4984859;28;84943;-59
2023/04/07 11:02:15;;;;;;;73.90;51.22;;;15.70;68.20;;;;;;4980891;28;85262;-59
2023/04/07 11:04:42;;;;;;;73.50;51.88;;;15.60;68.10;;;;;;4984386;28;85126;-59
2023/04/07 11:07:09;;;;;;;74.60;51.47;;;15.60;68.80;;;;;;4984359;28;85396;-59
2023/04/07 11:09:35;;;;;;;89.53;51.45;;;15.60;69.10;;;;;;4969529;28;85005;-59
2023/04/07 11:12:01;;;;;;;79.50;51.38;;;15.70;69.70;;;;;;4982859;28;84656;-58
2023/04/07 11:14:31;;;;;;;80.32;51.38;;;15.80;69.70;;;;;;4985240;28;84826;-59
2023/04/07 11:16:59;;;;;;;75.18;51.38;;;15.70;69.40;;;;;;4983337;28;85054;-55
2023/04/07 11:19:25;;;;;;;78.50;51.17;;;15.70;69.40;;;;;;4981456;28;85850;-57
2023/04/07 11:22:14;;;;;;;82.10;51.85;;;15.70;69.30;;;;;;4975614;28;84983;-58
2023/04/07 11:24:40;;;;;;;78.63;50.70;;;15.70;69.10;;;;;;4983695;28;86300;-58
2023/04/07 11:27:14;;;;;;;72.97;51.17;;;15.70;69.00;;;;;;4981739;28;84191;-52
2023/04/07 11:29:40;;;;;;;75.75;51.42;;;15.70;71.90;;;;;;4984961;28;84907;-52
2023/04/07 11:32:06;;;;;;;73.93;51.05;;;15.70;71.80;;;;;;4967189;28;86573;-52
2023/04/07 11:34:36;;;;;;;75.18;50.83;;;15.70;71.90;;;;;;4982704;28;84729;-53
2023/04/07 11:37:21;;;;;;;72.82;50.92;;;15.60;72.10;;;;;;4982142;28;85336;-53
2023/04/07 11:39:54;;;;;;;80.50;51.00;;;15.60;72.20;;;;;;4983731;28;84695;-51
2023/04/07 11:42:38;;;;;;;74.47;50.83;;;15.60;73.00;;;;;;4981016;28;84949;-50
2023/04/07 11:45:14;;;;;;;72.70;50.95;;;15.60;73.00;;;;;;4980685;28;84989;-51
2023/04/07 11:47:40;;;;;;;74.97;50.47;;;15.70;73.00;;;;;;4986185;28;84244;-51
2023/04/07 11:50:07;;;;;;;73.00;50.60;;;15.60;73.40;;;;;;4983098;28;84920;-48
2023/04/07 11:52:46;;;;;;;73.57;50.70;;;15.60;73.50;;;;;;4983590;28;85523;-54
2023/04/07 11:55:25;;;;;;;74.20;51.08;;;15.70;73.80;;;;;;4984493;28;84727;-54
2023/04/07 11:57:51;;;;;;;73.60;50.75;;;15.70;73.50;;;;;;4984978;28;85207;-53
2023/04/07 12:00:17;;;;;;;73.65;50.85;;;15.60;73.60;;;;;;4984543;28;84958;-53
2023/04/07 12:02:43;;;;;;;73.20;50.75;;;15.60;73.70;;;;;;4982978;28;84714;-51
2023/04/07 12:05:09;;;;;;;73.93;50.65;;;15.70;73.70;;;;;;4984827;28;84528;-54
2023/04/07 12:07:39;;;;;;;74.65;50.70;;;15.70;73.70;;;;;;4981522;28;84916;-52
2023/04/07 12:10:21;;;;;;;71.97;51.03;;;15.70;73.50;;;;;;4982659;28;85191;-54
2023/04/07 12:12:46;;;;;;;;;;;15.80;73.20;;;;;;4982287;28;86309;-51
2023/04/07 12:15:12;;;;;;;72.90;50.40;;;15.80;73.10;;;;;;4984599;28;85236;-51
2023/04/07 12:17:44;;;;;;;75.78;50.92;;;15.80;72.70;;;;;;4985839;28;84336;-54
2023/04/07 12:20:10;;;;;;;74.05;50.63;;;15.70;72.90;;;;;;4978131;28;84888;-53
2023/04/07 12:22:36;;;;;;;71.88;50.22;;;15.70;72.70;;;;;;4981774;28;85478;-50
2023/04/07 12:25:02;;;;;;;72.65;50.40;;;15.80;72.50;;;;;;4984130;28;84705;-54
2023/04/07 12:27:27;;;;;;;71.70;50.47;;;15.80;72.10;;;;;;4983238;28;85628;-54
2023/04/07 12:29:53;;;;;;;71.32;50.67;;;15.80;71.90;;;;;;4985169;28;84809;-53
2023/04/07 12:32:19;;;;;;;70.90;50.20;;;15.80;71.90;;;;;;4980796;28;85703;-54